createdAt,value
2022-11-22T07:46:49.896Z,6.50
2022-11-22T07:49:18.165Z,6.60
2022-11-22T07:51:46.265Z,6.60
2022-11-22T07:54:14.589Z,6.70
2022-11-22T07:56:42.720Z,6.80
2022-11-22T07:59:10.773Z,6.80
2022-11-22T08:01:41.827Z,6.80
2022-11-22T08:04:11.326Z,6.90
2022-11-22T08:06:39.396Z,6.90
2022-11-22T08:09:07.517Z,7.00
2022-11-22T08:16:55.585Z,7.10
2022-11-22T08:19:23.734Z,7.00
2022-11-22T08:21:58.137Z,7.00
2022-11-22T08:24:26.679Z,7.00
2022-11-22T08:26:54.739Z,7.00
2022-11-22T08:29:22.921Z,7.00
2022-11-22T08:31:51.265Z,7.00
2022-11-22T08:34:20.769Z,7.00
2022-11-22T08:36:49.061Z,7.10
2022-11-22T08:39:17.060Z,7.10
2022-11-22T08:41:45.114Z,7.20
2022-11-22T08:44:13.217Z,7.30
2022-11-22T08:46:41.332Z,7.30
2022-11-22T08:49:11.658Z,7.30
2022-11-22T08:51:44.898Z,7.30
2022-11-22T08:54:13.266Z,7.30
2022-11-22T08:56:41.634Z,7.40
2022-11-22T08:59:09.813Z,7.50
2022-11-22T09:01:38.008Z,7.60
2022-11-22T09:04:06.642Z,7.60
2022-11-22T09:09:44.357Z,7.60
2022-11-22T09:12:12.939Z,7.60
2022-11-22T09:14:41.076Z,7.60
2022-11-22T09:17:13.193Z,7.70
2022-11-22T09:19:44.183Z,7.70
2022-11-22T09:22:12.299Z,7.80
2022-11-22T09:24:41.802Z,7.80
2022-11-22T09:27:09.915Z,7.90
2022-11-22T09:29:38.024Z,7.90
2022-11-22T09:32:09.977Z,7.90
2022-11-22T09:34:38.073Z,8.00
2022-11-22T09:37:06.145Z,8.00
2022-11-22T09:39:34.264Z,8.10
2022-11-22T09:42:21.241Z,8.10
2022-11-22T09:45:36.277Z,8.20
2022-11-22T09:48:19.202Z,8.30
2022-11-22T09:50:56.323Z,8.30
2022-11-22T09:53:30.965Z,8.30
2022-11-22T09:56:03.928Z,8.40
2022-11-22T09:58:41.436Z,8.40
2022-11-22T10:01:16.367Z,8.40
2022-11-22T10:03:48.924Z,8.50
2022-11-22T10:06:25.585Z,8.40
2022-11-22T10:09:05.562Z,8.50
2022-11-22T10:11:39.583Z,8.50
2022-11-22T10:14:22.447Z,8.60
2022-11-22T10:16:56.900Z,8.50
2022-11-22T10:19:31.113Z,8.50
2022-11-22T10:21:59.930Z,8.60
2022-11-22T10:24:29.924Z,8.60
2022-11-22T10:27:00.550Z,8.50
2022-11-22T10:29:41.227Z,8.60
2022-11-22T10:32:18.498Z,8.70
2022-11-22T10:35:12.217Z,8.70
2022-11-22T10:37:50.477Z,8.70
2022-11-22T10:40:24.201Z,8.70
2022-11-22T10:43:20.688Z,8.70
2022-11-22T10:45:57.468Z,8.80
2022-11-22T10:48:30.099Z,8.80
2022-11-22T10:51:05.678Z,8.90
2022-11-22T10:53:48.041Z,9.00
2022-11-22T10:56:22.743Z,9.00
2022-11-22T10:59:06.583Z,9.20
2022-11-22T11:01:41.469Z,9.30
2022-11-22T11:04:13.702Z,9.40
2022-11-22T11:10:10.825Z,9.70
2022-11-22T11:12:41.503Z,9.70
2022-11-22T11:15:21.901Z,9.70
2022-11-22T11:17:56.987Z,9.60
2022-11-22T11:20:27.789Z,9.60
2022-11-22T11:25:47.733Z,9.60
2022-11-22T11:28:20.703Z,9.70
2022-11-22T11:30:51.908Z,9.80
2022-11-22T11:33:27.408Z,9.80
2022-11-22T11:35:58.917Z,9.80
2022-11-22T11:38:28.643Z,9.80
2022-11-22T11:40:56.680Z,9.70
2022-11-22T11:43:26.163Z,9.50
2022-11-22T11:45:56.087Z,9.50
2022-11-22T11:48:30.328Z,9.40
2022-11-22T11:51:12.986Z,9.30
2022-11-22T11:53:42.040Z,9.30
2022-11-22T11:56:21.336Z,9.40
2022-11-22T11:58:53.517Z,9.40
2022-11-22T12:01:22.242Z,9.40
2022-11-22T12:03:58.412Z,9.40
2022-11-22T12:06:29.781Z,9.40
2022-11-22T12:08:58.221Z,9.30
2022-11-22T12:11:35.372Z,9.30
2022-11-22T12:14:21.446Z,9.40
2022-11-22T12:16:55.455Z,9.50
2022-11-22T12:19:30.632Z,9.50
2022-11-22T12:22:04.962Z,9.50
2022-11-22T12:27:26.695Z,10.00
2022-11-22T12:29:55.108Z,10.10
2022-11-22T12:32:28.369Z,10.20
2022-11-22T12:35:04.101Z,10.30
2022-11-22T12:37:37.651Z,10.20
2022-11-22T12:40:16.012Z,10.20
2022-11-22T12:42:48.800Z,10.10
2022-11-22T12:45:24.952Z,10.10
2022-11-22T12:47:56.776Z,10.10
2022-11-22T12:48:32.833Z,9.70
2022-11-22T12:50:31.323Z,10.10
2022-11-22T12:53:07.368Z,10.30
2022-11-22T12:55:45.449Z,10.70
2022-11-22T12:58:22.940Z,10.90
2022-11-22T13:01:06.861Z,10.90
2022-11-22T13:03:39.661Z,10.80
2022-11-22T13:06:11.734Z,10.70
2022-11-22T13:08:48.693Z,10.60
2022-11-22T13:11:27.137Z,10.50
2022-11-22T13:14:01.270Z,10.40
2022-11-22T13:16:29.433Z,10.40
2022-11-22T13:19:01.458Z,10.40
2022-11-22T13:21:40.830Z,10.50
2022-11-22T13:24:25.954Z,11.00
2022-11-22T13:27:06.084Z,11.40
2022-11-22T13:29:36.753Z,11.70
2022-11-22T13:32:17.377Z,11.80
2022-11-22T13:35:06.143Z,11.90
2022-11-22T13:37:40.668Z,11.80
2022-11-22T13:40:24.357Z,12.00
2022-11-22T13:43:28.538Z,12.00
2022-11-22T13:45:58.921Z,11.90
2022-11-22T13:49:04.157Z,12.30
2022-11-22T13:51:53.728Z,12.80
2022-11-22T13:54:43.533Z,13.30
2022-11-22T13:57:30.902Z,13.20
2022-11-22T14:00:48.303Z,12.80
2022-11-22T14:03:37.251Z,12.50
2022-11-22T14:06:30.660Z,12.40
2022-11-22T14:09:28.699Z,12.90
2022-11-22T14:12:28.772Z,13.80
2022-11-22T14:15:26.124Z,14.10
2022-11-22T14:18:10.179Z,13.60
2022-11-22T14:20:47.745Z,13.00
2022-11-22T14:23:26.593Z,12.60
2022-11-22T14:26:09.076Z,12.10
2022-11-22T14:29:13.745Z,11.70
2022-11-22T14:31:42.200Z,11.70
2022-11-22T14:34:22.055Z,12.00
2022-11-22T14:37:23.405Z,12.40
2022-11-22T14:40:01.638Z,12.40
2022-11-22T14:42:50.563Z,11.90
2022-11-22T14:45:26.256Z,11.60
2022-11-22T14:48:02.163Z,11.30
2022-11-22T14:50:34.024Z,11.00
2022-11-22T14:53:10.459Z,10.90
2022-11-22T14:55:39.759Z,10.80
2022-11-22T14:58:13.163Z,10.70
2022-11-22T15:00:59.625Z,10.60
